Time;durP1;ratioP1;P1;durP2;ratioP2;P2;SDS_P1;SDS_P2;PMS_P1;PMS_P2;Temp;Humidity;BMP_temperature;BMP_pressure;BME280_temperature;BME280_humidity;BME280_pressure;Samples;Min_cycle;Max_cycle;Signal;HPM_P1;HPM_P2
2022/03/13 00:02:15;;;;;;;21.00;14.87;;;;;;;3.85;51.76;95461.78;4955632;28;20200;-78
2022/03/13 00:04:41;;;;;;;25.37;15.43;;;;;;;3.77;51.72;95469.19;4955808;28;20201;-79
2022/03/13 00:07:09;;;;;;;23.10;15.07;;;;;;;3.77;51.73;95466.63;4960032;28;20192;-78
2022/03/13 00:09:35;;;;;;;27.10;16.40;;;;;;;3.80;51.87;95468.16;4960952;29;20207;-78
2022/03/13 00:12:04;;;;;;;26.97;16.67;;;;;;;3.70;52.00;95473.94;4959453;29;20181;-79
2022/03/13 00:14:29;;;;;;;24.10;15.00;;;;;;;3.76;51.64;95471.88;4959849;28;20193;-79
2022/03/13 00:16:55;;;;;;;25.13;15.80;;;;;;;3.77;52.19;95463.25;4958308;28;20200;-79
2022/03/13 00:19:22;;;;;;;23.27;15.37;;;;;;;3.81;51.99;95474.97;4957707;29;20224;-79
2022/03/13 00:21:51;;;;;;;23.97;15.10;;;;;;;3.73;52.46;95464.41;4957750;28;20192;-79
2022/03/13 00:24:20;;;;;;;25.20;15.60;;;;;;;3.69;52.35;95463.78;4953978;29;20201;-79
2022/03/13 00:26:46;;;;;;;26.17;15.97;;;;;;;3.68;52.06;95467.28;4953889;28;20185;-78
2022/03/13 00:29:11;;;;;;;24.87;15.47;;;;;;;3.67;51.96;95463.91;4953417;28;20603;-79
2022/03/13 00:31:37;;;;;;;27.40;15.83;;;;;;;3.64;52.29;95461.56;4953086;28;20186;-79
2022/03/13 00:34:02;;;;;;;24.53;15.40;;;;;;;3.62;52.04;95457.44;4953939;29;20201;-79
2022/03/13 00:36:27;;;;;;;27.60;16.17;;;;;;;3.72;52.26;95463.59;4953918;29;20200;-79
2022/03/13 00:38:53;;;;;;;23.57;14.70;;;;;;;3.70;52.51;95463.66;4953782;28;20652;-79
2022/03/13 00:41:18;;;;;;;22.87;15.17;;;;;;;3.72;52.29;95462.78;4953496;29;20228;-79
2022/03/13 00:43:44;;;;;;;22.67;15.00;;;;;;;3.70;52.16;95458.53;4954148;28;20208;-78
2022/03/13 00:46:09;;;;;;;21.70;14.43;;;;;;;3.70;52.29;95460.28;4953939;28;20672;-78
2022/03/13 00:48:34;;;;;;;24.23;14.70;;;;;;;3.63;52.50;95449.66;4953886;28;20241;-79
2022/03/13 00:51:00;;;;;;;22.80;15.70;;;;;;;3.66;52.00;95454.56;4954183;28;20209;-79
2022/03/13 00:53:25;;;;;;;26.93;15.30;;;;;;;3.62;52.23;95455.72;4953222;28;20212;-78
2022/03/13 00:55:51;;;;;;;27.17;15.10;;;;;;;3.65;52.42;95452.91;4953138;28;20197;-77
2022/03/13 00:58:16;;;;;;;21.80;15.40;;;;;;;3.64;51.97;95453.84;4968912;28;20174;-77
2022/03/13 01:00:42;;;;;;;22.60;16.03;;;;;;;3.65;52.08;95454.66;4953284;28;20216;-78
2022/03/13 01:03:10;;;;;;;27.13;15.70;;;;;;;3.70;51.83;95445.69;4953285;28;20204;-78
2022/03/13 01:05:35;;;;;;;24.27;15.13;;;;;;;3.59;51.81;95443.06;4954232;28;20173;-78
2022/03/13 01:08:01;;;;;;;22.80;14.73;;;;;;;3.63;51.12;95433.41;4953412;29;20216;-77
2022/03/13 01:10:26;;;;;;;21.00;14.60;;;;;;;3.58;51.62;95440.59;4953876;28;20192;-77
2022/03/13 01:12:52;;;;;;;18.67;14.13;;;;;;;3.65;51.46;95428.97;4953116;29;20224;-77
2022/03/13 01:15:17;;;;;;;24.27;15.00;;;;;;;3.64;51.53;95430.72;4953207;28;20578;-77
2022/03/13 01:17:43;;;;;;;25.70;15.73;;;;;;;3.64;52.23;95430.72;4952792;28;20185;-77
2022/03/13 01:20:21;;;;;;;23.57;14.80;;;;;;;3.62;51.89;95432.59;4961886;28;20193;-79
2022/03/13 01:22:47;;;;;;;21.60;14.80;;;;;;;3.57;51.98;95429.53;4954088;28;20181;-79
2022/03/13 01:25:13;;;;;;;24.63;14.50;;;;;;;3.59;52.16;95432.78;4954753;29;20271;-79
2022/03/13 01:27:38;;;;;;;25.67;16.93;;;;;;;3.48;52.24;95444.75;4938824;29;20645;-78
2022/03/13 01:30:04;;;;;;;23.40;14.27;;;;;;;3.48;52.46;95425.03;4955003;29;20246;-79
2022/03/13 01:32:32;;;;;;;25.00;15.03;;;;;;;3.47;52.41;95431.09;4953150;29;20197;-79
2022/03/13 01:34:58;;;;;;;24.97;15.63;;;;;;;3.52;52.32;95431.56;4953126;28;20197;-76
2022/03/13 01:37:38;;;;;;;24.97;14.47;;;;;;;3.49;52.22;95434.38;4964531;28;20221;-79
2022/03/13 01:40:09;;;;;;;21.33;15.23;;;;;;;3.51;51.82;95424.81;4953315;29;20181;-77
2022/03/13 01:42:34;;;;;;;23.23;14.67;;;;;;;3.44;52.03;95430.47;4953521;28;20209;-78
2022/03/13 01:45:00;;;;;;;22.53;15.33;;;;;;;3.46;52.10;95423.50;4954771;29;20193;-79
2022/03/13 01:47:25;;;;;;;23.43;15.67;;;;;;;3.51;51.44;95422.25;4955104;29;20188;-78
2022/03/13 01:49:51;;;;;;;24.70;14.93;;;;;;;3.48;51.42;95424.22;4970844;28;20205;-78
2022/03/13 01:52:23;;;;;;;23.57;15.20;;;;;;;3.50;51.20;95420.59;4954444;29;20196;-78
2022/03/13 01:54:48;;;;;;;23.17;14.57;;;;;;;3.61;51.01;95424.97;4956220;28;20294;-77
2022/03/13 01:57:18;;;;;;;25.10;15.23;;;;;;;3.66;50.51;95422.91;4956881;29;20698;-78
2022/03/13 01:59:44;;;;;;;24.97;14.07;;;;;;;3.58;50.63;95414.94;4956854;28;20170;-78
2022/03/13 02:02:10;;;;;;;26.93;14.80;;;;;;;3.47;51.17;95423.41;4940265;29;20203;-77
2022/03/13 02:04:35;;;;;;;23.27;14.60;;;;;;;3.41;51.29;95427.19;4939923;29;20204;-78
2022/03/13 02:07:01;;;;;;;22.30;14.30;;;;;;;3.25;51.84;95428.38;4958461;28;20193;-78
2022/03/13 02:09:27;;;;;;;21.50;14.17;;;;;;;3.12;52.21;95431.78;4959710;28;20205;-78
2022/03/13 02:11:54;;;;;;;25.67;17.80;;;;;;;2.95;54.38;95424.41;4957895;28;20185;-78
2022/03/13 02:14:22;;;;;;;25.37;16.93;;;;;;;2.81;55.12;95429.66;4958736;28;20584;-78
2022/03/13 02:16:48;;;;;;;24.97;16.10;;;;;;;2.80;55.36;95428.03;4956972;28;20177;-78
2022/03/13 02:19:15;;;;;;;27.87;15.23;;;;;;;2.83;54.72;95425.25;4972800;28;20177;-77
2022/03/13 02:21:48;;;;;;;21.37;14.83;;;;;;;2.80;54.59;95417.75;4939855;29;20177;-78
2022/03/13 02:24:15;;;;;;;22.67;15.67;;;;;;;2.86;54.52;95413.97;4957252;28;20213;-78
2022/03/13 02:26:55;;;;;;;22.63;14.77;;;;;;;2.83;54.89;95415.81;4955854;28;20264;-78
2022/03/13 02:29:20;;;;;;;24.53;15.27;;;;;;;2.80;54.68;95413.44;4940101;29;20284;-77
2022/03/13 02:31:45;;;;;;;23.37;14.17;;;;;;;2.75;54.77;95412.97;4961661;28;20296;-77
2022/03/13 02:34:12;;;;;;;24.80;14.53;;;;;;;2.93;53.96;95412.63;4955807;29;20197;-77
2022/03/13 02:36:37;;;;;;;24.03;16.07;;;;;;;2.94;53.76;95409.97;4956657;29;20557;-78
2022/03/13 02:39:08;;;;;;;26.37;15.20;;;;;;;2.91;53.61;95407.59;4956075;29;20192;-78
2022/03/13 02:41:33;;;;;;;24.90;16.10;;;;;;;2.90;53.89;95413.63;4940837;29;20236;-78
2022/03/13 02:43:59;;;;;;;22.73;15.67;;;;;;;2.90;53.98;95407.69;4957496;29;20193;-77
2022/03/13 02:46:51;;;;;;;21.73;14.03;;;;;;;3.02;53.28;95412.81;4957058;28;20215;-78
2022/03/13 02:49:18;;;;;;;29.20;16.60;;;;;;;3.23;51.90;95413.09;4942724;29;20212;-78
2022/03/13 02:51:45;;;;;;;24.53;15.17;;;;;;;3.31;51.57;95407.41;4940636;29;20189;-78
2022/03/13 02:54:11;;;;;;;25.00;15.60;;;;;;;3.45;51.20;95411.59;4940400;29;20201;-78
2022/03/13 02:56:37;;;;;;;23.57;14.83;;;;;;;3.49;50.95;95405.31;4940646;29;20723;-78
2022/03/13 02:59:02;;;;;;;27.30;14.63;;;;;;;3.55;50.66;95408.28;4956824;28;20256;-78
2022/03/13 03:01:28;;;;;;;25.03;15.83;;;;;;;3.55;50.70;95408.28;4955898;28;20186;-77
2022/03/13 03:03:57;;;;;;;23.17;15.63;;;;;;;3.53;50.50;95411.84;4955605;28;20606;-78
2022/03/13 03:06:24;;;;;;;24.00;15.27;;;;;;;3.51;50.49;95414.53;4955260;28;20247;-78
2022/03/13 03:08:51;;;;;;;26.60;16.30;;;;;;;3.45;50.78;95421.88;4940008;29;20251;-76
2022/03/13 03:11:16;;;;;;;25.33;15.70;;;;;;;3.45;51.25;95422.69;4955246;28;20182;-77
2022/03/13 03:13:42;;;;;;;25.23;15.67;;;;;;;3.43;51.06;95427.09;4955789;28;20217;-77
2022/03/13 03:16:07;;;;;;;22.83;15.03;;;;;;;3.39;51.10;95417.97;4955265;29;20183;-77
2022/03/13 03:18:33;;;;;;;25.17;15.73;;;;;;;3.34;51.30;95413.16;4940634;29;20189;-79
2022/03/13 03:20:58;;;;;;;29.37;15.87;;;;;;;3.19;51.64;95406.53;4941345;29;20181;-78
2022/03/13 03:23:23;;;;;;;26.03;16.47;;;;;;;3.08;52.33;95402.13;4940721;29;20204;-79
2022/03/13 03:25:49;;;;;;;27.73;16.83;;;;;;;3.18;52.45;95406.63;4941010;29;20177;-79
2022/03/13 03:28:16;;;;;;;27.10;16.17;;;;;;;3.05;52.72;95407.47;4957793;28;20193;-78
2022/03/13 03:30:41;;;;;;;25.83;16.10;;;;;;;3.09;52.68;95398.66;4940811;28;20189;-79
2022/03/13 03:33:07;;;;;;;24.87;16.37;;;;;;;3.01;52.82;95402.69;4956583;28;20293;-79
2022/03/13 03:35:34;;;;;;;24.33;15.50;;;;;;;2.95;53.57;95406.47;4957795;29;20196;-78
2022/03/13 03:37:59;;;;;;;23.43;15.23;;;;;;;2.91;53.19;95402.44;4956823;28;20174;-78
2022/03/13 03:40:29;;;;;;;25.50;16.50;;;;;;;2.80;53.48;95407.50;4956699;29;20213;-78
2022/03/13 03:42:59;;;;;;;24.33;16.43;;;;;;;2.69;54.05;95407.41;4940621;29;20189;-78
2022/03/13 03:45:24;;;;;;;25.60;15.23;;;;;;;2.65;54.08;95408.53;4957561;29;20197;-79
2022/03/13 03:47:50;;;;;;;24.80;15.07;;;;;;;2.71;53.77;95411.50;4940710;29;20569;-79
2022/03/13 03:50:16;;;;;;;22.87;14.17;;;;;;;2.76;53.84;95406.09;4941451;29;20224;-78
2022/03/13 03:52:42;;;;;;;24.17;15.90;;;;;;;2.74;53.96;95410.47;4940081;29;20213;-78
2022/03/13 03:55:08;;;;;;;20.60;14.30;;;;;;;2.74;53.60;95402.78;4958054;28;20697;-79
2022/03/13 03:57:33;;;;;;;25.60;15.03;;;;;;;2.73;53.74;95403.69;4956791;28;20185;-79
2022/03/13 03:59:58;;;;;;;23.43;15.10;;;;;;;2.72;53.66;95400.31;4940394;29;20203;-79
2022/03/13 04:02:24;;;;;;;24.30;14.70;;;;;;;2.65;54.02;95404.25;4956659;28;20196;-79
2022/03/13 04:04:49;;;;;;;24.60;15.27;;;;;;;2.63;54.12;95403.50;4959984;29;20197;-78
2022/03/13 04:07:15;;;;;;;26.80;14.70;;;;;;;2.63;53.90;95397.56;4959854;28;20329;-79
2022/03/13 04:09:40;;;;;;;23.87;14.57;;;;;;;2.63;54.05;95405.25;4956813;28;20211;-78
2022/03/13 04:12:08;;;;;;;24.13;15.03;;;;;;;2.57;54.47;95398.00;4938591;28;20221;-79
2022/03/13 04:14:37;;;;;;;25.00;14.97;;;;;;;2.45;54.49;95397.03;4956126;29;20204;-79
2022/03/13 04:17:04;;;;;;;24.40;14.73;;;;;;;2.39;55.20;95397.47;4955510;28;20177;-79
2022/03/13 04:19:30;;;;;;;24.50;15.10;;;;;;;2.35;55.56;95390.91;4939812;29;20553;-79
2022/03/13 04:21:55;;;;;;;25.20;15.80;;;;;;;2.32;54.98;95391.09;4954768;29;20260;-79
2022/03/13 04:24:22;;;;;;;21.33;14.30;;;;;;;2.24;55.55;95392.44;4956212;28;20208;-79
2022/03/13 04:26:49;;;;;;;22.93;14.17;;;;;;;2.20;55.80;95392.72;4955547;28;20184;-79
2022/03/13 04:29:16;;;;;;;22.30;15.07;;;;;;;2.15;56.57;95395.59;4938967;29;20215;-78
2022/03/13 04:31:42;;;;;;;22.93;15.43;;;;;;;2.05;56.87;95397.13;4939047;28;20614;-79
2022/03/13 04:34:07;;;;;;;25.67;15.23;;;;;;;2.14;57.24;95399.06;4959382;29;20201;-79
2022/03/13 04:36:33;;;;;;;24.87;15.10;;;;;;;2.15;56.86;95399.91;4948605;29;20228;-78
2022/03/13 04:39:02;;;;;;;22.40;16.07;;;;;;;2.12;57.35;95400.06;4953043;29;20193;-78
2022/03/13 04:41:28;;;;;;;24.07;14.07;;;;;;;2.02;57.07;95401.59;4950499;29;20232;-79
2022/03/13 04:43:54;;;;;;;26.70;14.47;;;;;;;1.94;57.69;95404.66;4952122;29;20208;-78
2022/03/13 04:46:20;;;;;;;22.50;15.33;;;;;;;1.88;57.61;95407.63;4965605;28;20183;-79
2022/03/13 04:48:46;;;;;;;23.50;15.07;;;;;;;1.85;57.94;95403.50;4947347;29;20212;-78
2022/03/13 04:51:11;;;;;;;24.43;15.07;;;;;;;1.80;58.22;95404.72;4964080;28;20178;-78
2022/03/13 04:53:36;;;;;;;26.53;15.97;;;;;;;1.76;58.24;95403.28;4963133;28;20208;-78
2022/03/13 04:56:02;;;;;;;24.23;15.47;;;;;;;1.74;58.96;95411.06;4942207;29;20201;-79
2022/03/13 04:58:28;;;;;;;26.93;16.13;;;;;;;1.70;58.92;95405.31;4938562;29;20178;-80
2022/03/13 05:00:53;;;;;;;29.37;16.20;;;;;;;1.87;58.73;95414.50;4938486;28;20227;-78
2022/03/13 05:03:19;;;;;;;29.40;16.90;;;;;;;2.06;57.98;95411.56;4954306;29;20205;-77
2022/03/13 05:05:44;;;;;;;21.40;14.47;;;;;;;2.15;57.35;95413.53;4937538;29;20208;-78
2022/03/13 05:08:15;;;;;;;26.70;16.37;;;;;;;2.13;57.63;95405.13;4954072;28;20251;-78
2022/03/13 05:10:46;;;;;;;23.40;15.03;;;;;;;2.12;57.94;95411.19;4953515;28;20181;-78
2022/03/13 05:13:15;;;;;;;24.70;15.73;;;;;;;2.15;57.50;95416.09;4953491;28;20197;-79
2022/03/13 05:15:42;;;;;;;23.77;15.20;;;;;;;2.12;58.21;95415.44;4954497;28;20177;-79
2022/03/13 05:18:07;;;;;;;24.53;15.30;;;;;;;2.08;58.21;95414.00;4953629;28;20874;-77
2022/03/13 05:20:34;;;;;;;28.10;16.83;;;;;;;2.05;58.66;95415.03;4953175;28;20185;-78
2022/03/13 05:23:00;;;;;;;24.57;15.37;;;;;;;2.07;58.60;95417.50;4954647;28;20557;-78
2022/03/13 05:25:28;;;;;;;25.77;16.77;;;;;;;1.98;58.89;95417.16;4938023;29;20177;-78
2022/03/13 05:27:53;;;;;;;22.63;14.87;;;;;;;1.91;59.31;95423.59;4938020;29;20177;-78
2022/03/13 05:30:20;;;;;;;24.80;16.10;;;;;;;1.84;59.87;95426.66;4939924;29;20184;-77
2022/03/13 05:32:45;;;;;;;24.97;15.90;;;;;;;1.89;60.50;95427.19;4956753;28;20716;-79
2022/03/13 05:35:11;;;;;;;26.17;16.07;;;;;;;1.81;60.75;95430.22;4941188;29;20185;-77
2022/03/13 05:37:36;;;;;;;23.20;15.50;;;;;;;1.70;60.67;95430.09;4941838;29;20189;-79
2022/03/13 05:40:03;;;;;;;23.93;15.67;;;;;;;1.64;60.91;95427.91;4958183;29;20181;-79
2022/03/13 05:42:29;;;;;;;24.57;15.53;;;;;;;1.56;61.10;95433.50;4940424;29;20605;-78
2022/03/13 05:44:54;;;;;;;26.70;15.43;;;;;;;1.51;62.34;95432.19;4957775;28;20201;-78
2022/03/13 05:47:21;;;;;;;25.70;17.13;;;;;;;1.46;62.83;95441.84;4941451;29;20733;-80
2022/03/13 05:49:46;;;;;;;26.07;16.93;;;;;;;1.44;62.55;95446.25;4941326;29;20732;-78
2022/03/13 05:52:15;;;;;;;25.83;16.53;;;;;;;1.47;62.64;95451.19;4956739;28;20185;-79
2022/03/13 05:54:44;;;;;;;25.20;16.47;;;;;;;1.45;63.34;95451.28;4942415;29;20229;-78
2022/03/13 05:57:10;;;;;;;28.43;17.10;;;;;;;1.49;62.78;95449.34;4957634;28;20177;-79
2022/03/13 05:59:37;;;;;;;25.47;17.40;;;;;;;1.50;62.66;95456.09;4957713;28;20169;-79
2022/03/13 06:02:06;;;;;;;28.00;16.90;;;;;;;1.52;63.38;95461.97;4940929;29;20190;-79
2022/03/13 06:04:33;;;;;;;29.23;18.30;;;;;;;1.50;63.72;95456.09;4957323;29;20312;-79
2022/03/13 06:06:59;;;;;;;25.70;16.70;;;;;;;1.58;63.21;95461.56;4957537;29;20682;-79
2022/03/13 06:09:24;;;;;;;26.53;16.70;;;;;;;1.64;63.16;95459.44;4957760;29;20686;-78
2022/03/13 06:11:49;;;;;;;26.53;16.63;;;;;;;1.68;63.20;95462.66;4940918;28;20192;-77
2022/03/13 06:14:15;;;;;;;28.00;16.73;;;;;;;1.72;63.24;95468.41;4941224;29;20200;-77
2022/03/13 06:16:40;;;;;;;26.10;16.70;;;;;;;1.78;63.14;95466.28;4957144;28;20607;-78
2022/03/13 06:19:06;;;;;;;28.17;16.57;;;;;;;1.84;63.03;95470.19;4941184;29;20399;-79
2022/03/13 06:21:31;;;;;;;24.73;16.27;;;;;;;1.92;62.72;95471.34;4940905;29;20264;-79
2022/03/13 06:23:56;;;;;;;27.27;16.50;;;;;;;2.00;62.68;95478.53;4962438;28;20201;-77
2022/03/13 06:26:21;;;;;;;31.37;16.50;;;;;;;2.07;62.77;95474.66;4962351;28;20194;-77
2022/03/13 06:28:47;;;;;;;26.10;16.77;;;;;;;2.10;62.63;95471.91;4944621;29;20623;-78
2022/03/13 06:31:12;;;;;;;24.17;16.70;;;;;;;2.23;62.57;95474.53;4960693;28;20185;-78
2022/03/13 06:33:38;;;;;;;26.33;17.50;;;;;;;2.34;62.00;95474.63;4960975;28;20197;-78
2022/03/13 06:36:04;;;;;;;25.33;17.70;;;;;;;2.47;61.29;95477.22;4943390;29;20253;-78
2022/03/13 06:38:29;;;;;;;25.13;16.43;;;;;;;2.55;60.84;95480.91;4961478;28;20650;-78
2022/03/13 06:40:57;;;;;;;24.60;16.07;;;;;;;2.69;60.38;95474.91;4942127;29;20302;-78
2022/03/13 06:43:22;;;;;;;24.50;16.10;;;;;;;2.78;59.96;95481.97;4957116;28;20263;-79
2022/03/13 06:45:50;;;;;;;26.20;16.50;;;;;;;2.89;59.64;95488.13;4958462;28;20189;-80
2022/03/13 06:48:21;;;;;;;37.10;22.00;;;;;;;2.99;59.60;95484.84;4957145;29;20211;-80
2022/03/13 06:50:46;;;;;;;35.07;19.27;;;;;;;3.11;59.12;95484.03;4957442;28;20182;-80
2022/03/13 06:53:11;;;;;;;29.30;18.80;;;;;;;3.18;59.11;95486.16;4958362;28;20197;-79
2022/03/13 06:55:36;;;;;;;31.20;21.03;;;;;;;3.22;59.50;95485.88;4940822;28;20607;-78
2022/03/13 06:58:02;;;;;;;31.07;19.63;;;;;;;3.29;59.47;95491.41;4956526;28;20177;-80
2022/03/13 07:00:27;;;;;;;27.50;18.60;;;;;;;3.40;58.85;95494.06;4958061;28;20201;-82
2022/03/13 07:02:52;;;;;;;24.07;16.90;;;;;;;3.49;59.23;95493.41;4956693;28;20279;-80
2022/03/13 07:05:19;;;;;;;28.23;17.50;;;;;;;3.56;60.03;95501.53;4977150;28;20272;-79
2022/03/13 07:07:44;;;;;;;25.63;16.43;;;;;;;3.65;60.30;95496.56;4961708;28;20188;-80
2022/03/13 07:10:11;;;;;;;21.60;14.57;;;;;;;3.82;59.89;95500.53;4976045;28;20544;-78
2022/03/13 07:12:36;;;;;;;25.83;16.43;;;;;;;4.01;59.51;95494.91;4959955;28;20615;-80
2022/03/13 07:15:03;;;;;;;27.17;16.20;;;;;;;4.14;59.41;95495.66;4959750;28;20241;-79
2022/03/13 07:17:28;;;;;;;26.50;18.03;;;;;;;4.39;57.87;95504.19;4960002;28;20316;-80
2022/03/13 07:19:54;;;;;;;25.73;17.07;;;;;;;4.58;56.96;95504.50;4974676;28;20197;-80
2022/03/13 07:22:19;;;;;;;26.73;17.10;;;;;;;4.77;54.66;95503.97;4958984;28;20649;-81
2022/03/13 07:24:46;;;;;;;29.20;18.07;;;;;;;4.92;53.83;95507.16;4975479;28;20249;-80
2022/03/13 07:27:12;;;;;;;29.90;17.30;;;;;;;5.07;53.13;95504.25;4975454;28;20222;-80
2022/03/13 07:29:37;;;;;;;28.77;17.47;;;;;;;5.23;52.07;95501.38;4977281;28;20240;-79
2022/03/13 07:32:03;;;;;;;26.83;16.20;;;;;;;5.38;51.65;95507.91;4974534;28;20235;-80
2022/03/13 07:34:28;;;;;;;24.47;16.27;;;;;;;5.46;51.50;95498.78;4976890;28;20231;-79
2022/03/13 07:36:54;;;;;;;26.70;16.40;;;;;;;5.56;51.51;95502.28;4975782;28;20309;-81
2022/03/13 07:39:21;;;;;;;25.00;16.60;;;;;;;5.58;51.09;95495.28;4975545;28;20176;-81
2022/03/13 07:41:47;;;;;;;24.57;16.50;;;;;;;5.72;50.35;95495.00;4975056;28;20245;-79
2022/03/13 07:44:12;;;;;;;28.83;15.80;;;;;;;5.85;50.28;95506.00;4975889;28;20717;-80
2022/03/13 07:46:37;;;;;;;25.30;16.30;;;;;;;6.01;49.68;95504.81;4959752;28;20181;-79
2022/03/13 07:49:03;;;;;;;31.03;17.80;;;;;;;6.15;49.01;95502.81;4959054;28;20696;-80
2022/03/13 07:51:29;;;;;;;27.20;17.43;;;;;;;6.31;48.19;95497.25;4974293;28;20192;-78
2022/03/13 07:53:54;;;;;;;23.53;16.70;;;;;;;6.36;48.45;95496.88;4974853;28;20307;-79
2022/03/13 07:56:19;;;;;;;28.30;18.17;;;;;;;6.45;48.77;95498.75;4958741;28;20188;-80
2022/03/13 07:58:45;;;;;;;23.00;16.10;;;;;;;6.51;48.42;95496.47;4975817;28;20175;-80
2022/03/13 08:01:10;;;;;;;26.20;17.10;;;;;;;6.73;48.48;95498.13;4958937;28;20188;-82
2022/03/13 08:03:36;;;;;;;24.37;16.73;;;;;;;6.79;48.57;95497.59;4958538;28;20200;-81
2022/03/13 08:06:02;;;;;;;24.17;16.03;;;;;;;6.84;48.01;95493.84;4973669;28;20679;-80
2022/03/13 08:08:27;;;;;;;24.63;15.80;;;;;;;6.96;47.54;95495.41;4975435;28;20215;-80
2022/03/13 08:10:52;;;;;;;23.97;16.20;;;;;;;7.02;47.02;95500.06;4976104;28;20180;-81
2022/03/13 08:13:18;;;;;;;24.70;16.93;;;;;;;7.11;47.62;95507.06;4974875;28;20224;-81
2022/03/13 08:15:43;;;;;;;22.73;15.53;;;;;;;7.12;47.80;95502.72;4958807;28;20180;-80
2022/03/13 08:18:09;;;;;;;25.90;16.80;;;;;;;7.18;47.48;95500.44;4957487;28;20173;-81
2022/03/13 08:20:35;;;;;;;25.77;16.13;;;;;;;7.28;47.37;95503.06;4958609;28;20852;-82
2022/03/13 08:23:00;;;;;;;22.03;15.97;;;;;;;7.45;46.78;95499.88;4974264;28;20227;-82
2022/03/13 08:25:26;;;;;;;27.47;17.30;;;;;;;7.55;46.79;95494.75;4959815;28;20173;-83
2022/03/13 08:27:51;;;;;;;24.63;16.57;;;;;;;7.64;47.09;95502.53;4974870;28;20282;-83
2022/03/13 08:30:17;;;;;;;24.33;15.70;;;;;;;7.78;47.28;95505.75;4974076;28;20792;-82
2022/03/13 08:32:42;;;;;;;24.27;16.90;;;;;;;7.86;47.36;95506.72;4960483;28;20191;-82
2022/03/13 08:35:09;;;;;;;26.13;16.77;;;;;;;7.96;47.04;95506.75;5005066;23;20605;-79
2022/03/13 08:37:35;;;;;;;24.77;16.93;;;;;;;8.17;47.21;95507.44;4954501;29;20189;-80
2022/03/13 08:40:11;;;;;;;22.97;16.43;;;;;;;8.35;47.77;95507.63;4954438;29;20180;-80
2022/03/13 08:42:37;;;;;;;22.80;16.47;;;;;;;8.46;47.01;95509.28;4952122;29;20209;-81
2022/03/13 08:45:54;;;;;;;24.17;16.83;;;;;;;8.59;46.58;95509.03;4937899;29;20232;-80
2022/03/13 08:48:28;;;;;;;27.63;17.40;;;;;;;8.64;46.22;95510.22;4893007;29;20234;-79
2022/03/13 08:51:13;;;;;;;24.80;18.97;;;;;;;8.65;45.94;95508.47;4864081;29;20592;-80
2022/03/13 08:53:53;;;;;;;24.07;17.60;;;;;;;8.71;46.34;95508.75;4862389;29;20226;-79
2022/03/13 08:56:21;;;;;;;23.63;16.67;;;;;;;8.87;46.02;95505.59;4862078;29;20197;-78
2022/03/13 08:58:47;;;;;;;29.70;17.80;;;;;;;8.91;45.34;95508.72;4862324;29;20239;-79
2022/03/13 09:01:13;;;;;;;22.53;16.73;;;;;;;8.87;45.40;95510.78;4864663;29;20192;-80
2022/03/13 09:03:38;;;;;;;26.13;18.20;;;;;;;8.74;46.41;95508.44;4866356;29;20204;-79
2022/03/13 09:06:04;;;;;;;23.63;16.60;;;;;;;8.77;46.00;95505.59;4865631;29;20236;-79
2022/03/13 09:08:29;;;;;;;26.37;17.80;;;;;;;8.90;45.84;95499.31;4864797;29;20321;-79
2022/03/13 09:10:55;;;;;;;25.00;18.40;;;;;;;8.83;45.53;95498.22;4862618;29;20192;-79
2022/03/13 09:13:20;;;;;;;25.77;17.20;;;;;;;8.84;45.23;95500.72;4865048;29;20234;-78
2022/03/13 09:15:48;;;;;;;25.57;17.60;;;;;;;9.09;44.66;95512.22;4866297;29;20179;-80
2022/03/13 09:18:14;;;;;;;24.30;17.63;;;;;;;9.08;45.07;95510.59;4861934;29;20289;-81
2022/03/13 09:20:39;;;;;;;24.07;17.00;;;;;;;9.14;44.61;95509.25;4861531;29;20602;-81
2022/03/13 09:23:06;;;;;;;23.63;17.00;;;;;;;9.15;45.22;95510.88;4861017;29;20711;-79
2022/03/13 09:25:32;;;;;;;23.93;17.37;;;;;;;9.29;45.18;95510.44;4915607;28;20217;-79
2022/03/13 09:27:57;;;;;;;25.40;17.27;;;;;;;9.24;44.43;95510.84;4953897;29;20181;-80
2022/03/13 09:30:22;;;;;;;22.53;17.13;;;;;;;9.40;44.02;95510.25;4953577;29;20169;-81
2022/03/13 09:32:49;;;;;;;25.27;17.27;;;;;;;9.50;43.48;95510.22;4952972;29;20641;-79
2022/03/13 09:35:15;;;;;;;25.77;16.97;;;;;;;9.68;44.58;95499.94;4937935;29;20296;-78
2022/03/13 09:37:40;;;;;;;24.83;17.87;;;;;;;9.72;44.01;95496.91;4937525;29;20679;-81
2022/03/13 09:40:09;;;;;;;23.77;17.17;;;;;;;9.78;43.18;95492.91;4937650;29;20220;-80
2022/03/13 09:42:34;;;;;;;24.00;17.30;;;;;;;9.89;43.38;95498.75;4937605;29;20209;-80
2022/03/13 09:44:59;;;;;;;26.20;17.77;;;;;;;9.91;44.48;95496.81;4937105;29;20702;-80
2022/03/13 09:47:29;;;;;;;25.23;17.17;;;;;;;9.97;43.83;95503.19;4953404;29;20193;-80
2022/03/13 09:49:55;;;;;;;27.47;19.03;;;;;;;10.08;43.89;95504.78;4937598;29;20205;-81
2022/03/13 09:52:20;;;;;;;25.67;17.63;;;;;;;10.14;43.99;95506.78;4936649;29;20587;-80
2022/03/13 09:54:45;;;;;;;24.37;17.40;;;;;;;10.30;44.14;95500.97;4937036;29;20678;-79
2022/03/13 09:57:11;;;;;;;25.63;17.47;;;;;;;10.37;43.68;95504.63;4937448;29;20196;-79
2022/03/13 09:59:36;;;;;;;26.50;18.33;;;;;;;10.23;43.06;95513.72;4937262;29;20213;-80
2022/03/13 10:02:06;;;;;;;25.83;17.17;;;;;;;10.26;44.76;95503.06;4952582;29;20193;-80
2022/03/13 10:04:31;;;;;;;25.20;17.20;;;;;;;10.43;43.64;95504.06;4937386;29;20744;-79
2022/03/13 10:07:14;;;;;;;25.00;17.40;;;;;;;10.59;44.53;95505.97;4936992;29;20189;-80
2022/03/13 10:09:43;;;;;;;27.00;17.33;;;;;;;10.58;44.86;95497.34;4937035;29;20217;-79
2022/03/13 10:12:18;;;;;;;26.03;17.67;;;;;;;10.67;43.36;95490.44;4951367;29;20268;-80
2022/03/13 10:15:04;;;;;;;27.07;19.20;;;;;;;10.65;43.56;95490.59;4937605;29;20248;-79
2022/03/13 10:17:37;;;;;;;29.53;19.40;;;;;;;10.62;44.82;95482.31;4940658;29;20626;-80
2022/03/13 10:20:32;;;;;;;22.73;15.90;;;;;;;10.84;45.00;95487.03;4956555;29;20638;-80
2022/03/13 10:23:00;;;;;;;24.57;16.93;;;;;;;10.77;44.54;95480.78;4884672;29;20250;-79
2022/03/13 10:25:30;;;;;;;19.63;14.63;;;;;;;10.74;45.42;95481.91;4901180;29;20194;-79
2022/03/13 10:28:10;;;;;;;21.07;15.07;;;;;;;10.91;45.95;95485.47;4901091;29;20202;-79
2022/03/13 10:30:36;;;;;;;20.83;15.87;;;;;;;10.98;45.72;95486.50;4901536;29;20202;-80
2022/03/13 10:33:01;;;;;;;21.67;16.30;;;;;;;11.07;46.21;95485.59;4900478;29;20730;-80
2022/03/13 10:35:27;;;;;;;22.73;16.10;;;;;;;11.15;45.67;95484.00;4900677;29;20721;-80
2022/03/13 10:37:52;;;;;;;23.57;16.53;;;;;;;11.17;45.16;95474.28;4901127;29;20186;-80
2022/03/13 10:40:23;;;;;;;23.13;16.80;;;;;;;11.38;45.29;95479.09;4901417;29;20198;-81
2022/03/13 10:42:50;;;;;;;24.37;17.60;;;;;;;11.40;44.69;95479.78;4900236;29;20671;-81
2022/03/13 10:45:42;;;;;;;22.23;17.03;;;;;;;11.48;44.02;95479.81;4900885;29;20190;-81
2022/03/13 10:48:23;;;;;;;24.10;17.63;;;;;;;11.65;43.57;95484.13;4900742;29;20182;-80
2022/03/13 10:50:51;;;;;;;25.53;17.97;;;;;;;11.59;43.91;95472.56;4901213;29;20209;-80
2022/03/13 10:53:18;;;;;;;24.20;17.63;;;;;;;11.57;43.54;95473.66;4916126;29;20230;-80
2022/03/13 10:55:43;;;;;;;24.53;18.00;;;;;;;11.60;42.89;95473.38;4900797;29;20690;-80
2022/03/13 10:58:08;;;;;;;26.17;19.17;;;;;;;11.73;43.38;95475.53;4900504;29;20232;-81
2022/03/13 11:00:34;;;;;;;22.23;16.70;;;;;;;11.74;42.89;95470.19;4955215;29;20192;-80
2022/03/13 11:03:11;;;;;;;25.90;18.53;;;;;;;11.83;43.21;95468.44;4954661;29;20236;-78
2022/03/13 11:05:37;;;;;;;23.10;16.43;;;;;;;11.94;42.54;95473.38;4939947;29;20268;-81
2022/03/13 11:08:03;;;;;;;21.23;15.87;;;;;;;11.94;43.08;95462.97;4955316;29;20201;-80
2022/03/13 11:10:29;;;;;;;24.60;18.03;;;;;;;11.93;43.64;95471.75;4955020;29;20181;-80
2022/03/13 11:12:56;;;;;;;23.87;16.27;;;;;;;12.01;44.44;95476.97;4953850;29;20183;-81
2022/03/13 11:15:22;;;;;;;22.57;16.47;;;;;;;12.19;42.88;95469.88;4939503;29;20186;-79
2022/03/13 11:17:48;;;;;;;22.03;16.37;;;;;;;12.27;43.12;95469.06;4939123;29;20670;-80
2022/03/13 11:20:15;;;;;;;24.43;17.67;;;;;;;12.17;42.73;95465.78;4941183;29;20177;-80
2022/03/13 11:22:40;;;;;;;25.73;17.30;;;;;;;12.28;41.85;95467.28;4938594;29;20276;-80
2022/03/13 11:25:07;;;;;;;23.93;14.97;;;;;;;12.25;40.92;95465.00;4954927;29;20236;-77